Time;durP1;ratioP1;P1;durP2;ratioP2;P2;SDS_P1;SDS_P2;PMS_P1;PMS_P2;Temp;Humidity;BMP_temperature;BMP_pressure;BME280_temperature;BME280_humidity;BME280_pressure;Samples;Min_cycle;Max_cycle;Signal;HPM_P1;HPM_P2
2022/03/09 00:00:33;;;;;;;;;;;0.10;38.20;;;;;;5060718;28;19924;-75
2022/03/09 00:02:59;;;;;;;;;;;0.00;37.70;;;;;;5068630;28;19927;-80
2022/03/09 00:05:25;;;;;;;;;;;0.10;38.40;;;;;;5066291;28;20011;-80
2022/03/09 00:07:51;;;;;;;;;;;0.00;38.40;;;;;;5073852;28;20454;-75
2022/03/09 00:10:17;;;;;;;;;;;0.00;38.30;;;;;;5072634;28;19916;-76
2022/03/09 00:12:43;;;;;;;;;;;0.00;38.40;;;;;;5073480;28;19925;-80
2022/03/09 00:15:09;;;;;;;;;;;-0.10;38.40;;;;;;5052191;28;20006;-80
2022/03/09 00:17:35;;;;;;;;;;;0.00;38.70;;;;;;5064870;28;19924;-76
2022/03/09 00:20:02;;;;;;;;;;;-0.10;38.60;;;;;;5036120;28;19925;-76
2022/03/09 00:22:28;;;;;;;;;;;-0.10;38.20;;;;;;5051813;28;19972;-76
2022/03/09 00:24:54;;;;;;;;;;;-0.10;38.70;;;;;;5069577;28;19927;-76
2022/03/09 00:27:20;;;;;;;;;;;-0.10;38.80;;;;;;5066671;28;19925;-80
2022/03/09 00:29:46;;;;;;;;;;;-0.10;38.90;;;;;;5056455;28;19982;-75
2022/03/09 00:32:13;;;;;;;;;;;-0.20;39.00;;;;;;5050496;28;19931;-80
2022/03/09 00:34:39;;;;;;;;;;;-0.20;38.50;;;;;;5069644;28;20003;-76
2022/03/09 00:37:05;;;;;;;;;;;-0.20;38.40;;;;;;5034414;28;20335;-76
2022/03/09 00:39:31;;;;;;;;;;;-0.20;39.00;;;;;;5053460;28;19979;-76
2022/03/09 00:41:57;;;;;;;;;;;-0.20;38.60;;;;;;5051590;28;19955;-76
2022/03/09 00:44:23;;;;;;;;;;;-0.20;39.10;;;;;;5034843;28;19924;-80
2022/03/09 00:46:49;;;;;;;;;;;-0.30;39.30;;;;;;5051662;28;19943;-76
2022/03/09 00:49:15;;;;;;;;;;;-0.30;39.50;;;;;;5057113;28;20362;-80
2022/03/09 00:51:41;;;;;;;;;;;-0.40;39.00;;;;;;5062619;28;19924;-75
2022/03/09 00:54:07;;;;;;;;;;;-0.30;39.60;;;;;;5050194;28;19928;-80
2022/03/09 00:56:34;;;;;;;;;;;-0.40;39.40;;;;;;5054140;28;19936;-76
2022/03/09 00:58:59;;;;;;;;;;;-0.40;39.60;;;;;;5070686;28;19928;-80
2022/03/09 01:01:26;;;;;;;;;;;-0.40;39.70;;;;;;5070630;28;20362;-80
2022/03/09 01:03:51;;;;;;;;;;;-0.50;39.20;;;;;;5049657;28;20420;-80
2022/03/09 01:06:17;;;;;;;;;;;-0.40;39.70;;;;;;5049940;28;19924;-75
2022/03/09 01:08:43;;;;;;;;;;;-0.40;39.70;;;;;;5050304;28;19924;-76
2022/03/09 01:11:09;;;;;;;;;;;-0.40;39.80;;;;;;5034333;28;19925;-81
2022/03/09 01:13:36;;;;;;;;;;;-0.40;39.80;;;;;;5051355;28;19925;-76
2022/03/09 01:16:02;;;;;;;;;;;-0.40;39.70;;;;;;5082547;28;19932;-76
2022/03/09 01:18:28;;;;;;;;;;;-0.40;39.60;;;;;;5038313;28;19979;-80
2022/03/09 01:20:54;;;;;;;;;;;-0.40;39.80;;;;;;5076831;28;20369;-80
2022/03/09 01:23:20;;;;;;;;;;;-0.40;39.80;;;;;;5081510;28;19925;-80
2022/03/09 01:25:46;;;;;;;;;;;-0.40;39.90;;;;;;5074263;28;19925;-80
2022/03/09 01:28:12;;;;;;;;;;;-0.50;40.00;;;;;;5055301;28;19921;-80
2022/03/09 01:30:38;;;;;;;;;;;-0.50;40.00;;;;;;5059633;28;20365;-80
2022/03/09 01:33:04;;;;;;;;;;;-0.40;40.00;;;;;;5051145;28;19932;-76
2022/03/09 01:35:30;;;;;;;;;;;-0.40;40.00;;;;;;5055993;28;19925;-80
2022/03/09 01:37:56;;;;;;;;;;;-0.50;40.20;;;;;;5063818;28;19970;-80
2022/03/09 01:40:22;;;;;;;;;;;-0.50;40.30;;;;;;5051032;28;20109;-75
2022/03/09 01:42:48;;;;;;;;;;;-0.40;40.10;;;;;;5051041;28;19931;-75
2022/03/09 01:45:14;;;;;;;;;;;-0.40;40.10;;;;;;5052808;28;19925;-80
2022/03/09 01:47:41;;;;;;;;;;;-0.40;39.90;;;;;;5070300;28;19981;-80
2022/03/09 01:50:09;;;;;;;;;;;-0.40;39.90;;;;;;5066953;28;19925;-76
2022/03/09 01:52:36;;;;;;;;;;;-0.40;39.90;;;;;;5048565;28;19921;-76
2022/03/09 01:55:02;;;;;;;;;;;-0.40;39.90;;;;;;5049639;28;19931;-80
2022/03/09 01:57:30;;;;;;;;;;;-0.40;39.50;;;;;;5068129;28;19924;-76
2022/03/09 01:59:56;;;;;;;;;;;-0.30;39.90;;;;;;5051087;28;20012;-75
2022/03/09 02:02:23;;;;;;;;;;;-0.40;40.40;;;;;;5050823;28;19929;-76
2022/03/09 02:04:49;;;;;;;;;;;-0.50;40.20;;;;;;5066392;28;20373;-80
2022/03/09 02:07:15;;;;;;;;;;;-0.50;40.40;;;;;;5069022;28;19966;-80
2022/03/09 02:09:42;;;;;;;;;;;-0.60;41.40;;;;;;5068568;28;20357;-76
2022/03/09 02:12:26;;;;;;;;;;;-0.60;41.40;;;;;;5050222;28;19982;-80
2022/03/09 02:14:53;;;;;;;;;;;-0.70;41.10;;;;;;5067911;28;20015;-79
2022/03/09 02:17:21;;;;;;;;;;;-0.70;41.20;;;;;;5053668;28;20055;-76
2022/03/09 02:19:50;;;;;;;;;;;-0.70;41.30;;;;;;5074379;28;19959;-80
2022/03/09 02:22:35;;;;;;;;;;;-0.80;41.40;;;;;;5051012;28;20096;-76
2022/03/09 02:25:05;;;;;;;;;;;-0.80;41.40;;;;;;5045614;28;19924;-76
2022/03/09 02:27:31;;;;;;;;;;;-0.80;41.40;;;;;;5038810;28;19921;-76
2022/03/09 02:29:57;;;;;;;;;;;-0.80;41.50;;;;;;5048453;28;19951;-79
2022/03/09 02:32:23;;;;;;;;;;;-0.80;41.30;;;;;;5041761;28;19924;-76
2022/03/09 02:34:50;;;;;;;;;;;-0.80;40.90;;;;;;5059198;28;19970;-79
2022/03/09 02:37:16;;;;;;;;;;;-0.80;41.30;;;;;;5061306;28;19917;-76
2022/03/09 02:39:42;;;;;;;;;;;-0.80;41.30;;;;;;5061124;28;20007;-80
2022/03/09 02:42:09;;;;;;;;;;;-0.80;40.90;;;;;;5066310;28;19974;-80
2022/03/09 02:44:35;;;;;;;;;;;-0.80;41.50;;;;;;5053813;28;19978;-76
2022/03/09 02:47:01;;;;;;;;;;;-0.80;41.60;;;;;;5070697;28;19924;-76
2022/03/09 02:49:28;;;;;;;;;;;-0.80;41.90;;;;;;5053408;28;19917;-79
2022/03/09 02:51:54;;;;;;;;;;;-0.90;41.70;;;;;;5055069;28;19917;-75
2022/03/09 02:54:20;;;;;;;;;;;-0.90;41.80;;;;;;5053735;28;19925;-75
2022/03/09 02:56:46;;;;;;;;;;;-0.90;41.80;;;;;;5052460;28;19924;-75
2022/03/09 02:59:12;;;;;;;;;;;-0.90;41.70;;;;;;5052870;28;19956;-75
2022/03/09 03:01:39;;;;;;;;;;;-0.90;42.00;;;;;;5053686;28;20281;-80
2022/03/09 03:04:05;;;;;;;;;;;-1.00;41.80;;;;;;5052908;28;20008;-80
2022/03/09 03:06:30;;;;;;;;;;;-1.00;42.20;;;;;;5070274;28;19995;-80
2022/03/09 03:08:56;;;;;;;;;;;-1.10;42.20;;;;;;5053653;28;19931;-77
2022/03/09 03:11:22;;;;;;;;;;;-1.10;42.20;;;;;;5057074;28;19936;-77
2022/03/09 03:13:51;;;;;;;;;;;-1.10;42.20;;;;;;5062840;28;19929;-76
2022/03/09 03:16:17;;;;;;;;;;;-1.10;42.20;;;;;;5043765;28;19923;-80
2022/03/09 03:18:43;;;;;;;;;;;-1.10;42.10;;;;;;5035860;28;19963;-79
2022/03/09 03:21:09;;;;;;;;;;;-1.00;42.10;;;;;;5055622;28;19996;-79
2022/03/09 03:23:35;;;;;;;;;;;-1.00;42.10;;;;;;5053562;28;19924;-80
2022/03/09 03:26:04;;;;;;;;;;;-1.00;41.50;;;;;;5069421;28;19940;-80
2022/03/09 03:28:32;;;;;;;;;;;-1.00;42.00;;;;;;5053712;28;19943;-80
2022/03/09 03:30:58;;;;;;;;;;;-1.00;42.00;;;;;;5070315;28;19924;-79
2022/03/09 03:33:24;;;;;;;;;;;-1.00;41.90;;;;;;5055300;28;20266;-80
2022/03/09 03:35:51;;;;;;;;;;;-0.90;41.50;;;;;;5064679;28;19921;-75
2022/03/09 03:38:17;;;;;;;;;;;-0.90;42.10;;;;;;5053454;28;20408;-76
2022/03/09 03:40:43;;;;;;;;;;;-0.90;41.50;;;;;;5051024;28;20023;-80
2022/03/09 03:43:09;;;;;;;;;;;-0.90;42.10;;;;;;5053847;28;19928;-76
2022/03/09 03:45:35;;;;;;;;;;;-0.90;42.40;;;;;;5069395;28;19924;-76
2022/03/09 03:48:01;;;;;;;;;;;-0.90;42.30;;;;;;5054259;28;20360;-76
2022/03/09 03:50:27;;;;;;;;;;;-0.90;42.30;;;;;;5050772;28;19929;-79
2022/03/09 03:52:53;;;;;;;;;;;-0.80;42.30;;;;;;5053566;28;20462;-76
2022/03/09 03:55:19;;;;;;;;;;;-0.80;42.40;;;;;;5050715;28;20263;-80
2022/03/09 03:57:45;;;;;;;;;;;-0.90;42.10;;;;;;5082252;28;19928;-80
2022/03/09 04:00:12;;;;;;;;;;;-0.80;42.70;;;;;;5058283;28;19931;-80
2022/03/09 04:02:38;;;;;;;;;;;-0.70;43.00;;;;;;5041652;28;20160;-79
2022/03/09 04:05:05;;;;;;;;;;;-0.70;42.20;;;;;;5051136;28;20371;-75
2022/03/09 04:07:32;;;;;;;;;;;-0.70;42.00;;;;;;5059435;28;19924;-76
2022/03/09 04:09:58;;;;;;;;;;;-0.70;42.40;;;;;;5062914;28;19967;-81
2022/03/09 04:12:24;;;;;;;;;;;-0.70;42.80;;;;;;5033740;28;19924;-76
2022/03/09 04:14:51;;;;;;;;;;;-0.70;42.80;;;;;;5034304;28;19925;-80
2022/03/09 04:17:17;;;;;;;;;;;-0.70;42.80;;;;;;5059028;28;20438;-76
2022/03/09 04:19:43;;;;;;;;;;;-0.70;42.90;;;;;;5066102;28;19925;-80
2022/03/09 04:22:09;;;;;;;;;;;-0.70;42.90;;;;;;5076972;28;20292;-76
2022/03/09 04:24:35;;;;;;;;;;;-0.70;43.00;;;;;;5054216;28;19925;-80
2022/03/09 04:27:02;;;;;;;;;;;-0.80;43.00;;;;;;5069702;28;20343;-80
2022/03/09 04:29:27;;;;;;;;;;;-0.80;43.00;;;;;;5071467;28;19926;-75
2022/03/09 04:31:53;;;;;;;;;;;-0.80;43.00;;;;;;5069100;28;19921;-80
2022/03/09 04:34:19;;;;;;;;;;;-0.80;43.20;;;;;;5053735;28;19931;-79
2022/03/09 04:36:45;;;;;;;;;;;-0.80;43.20;;;;;;5052891;28;20211;-80
2022/03/09 04:39:11;;;;;;;;;;;-0.90;43.30;;;;;;5053022;28;19935;-79
2022/03/09 04:41:37;;;;;;;;;;;-0.90;43.30;;;;;;5053209;28;20403;-76
2022/03/09 04:44:03;;;;;;;;;;;-0.90;43.30;;;;;;5051776;28;19971;-76
2022/03/09 04:46:29;;;;;;;;;;;-0.90;42.70;;;;;;5038943;28;19931;-75
2022/03/09 04:48:55;;;;;;;;;;;-0.90;43.40;;;;;;5036521;28;19925;-80
2022/03/09 04:51:21;;;;;;;;;;;-0.90;43.50;;;;;;5037532;28;20453;-76
2022/03/09 04:53:47;;;;;;;;;;;-0.90;43.70;;;;;;5043395;28;19925;-76
2022/03/09 04:56:15;;;;;;;;;;;-0.90;43.70;;;;;;5049141;28;19921;-76
2022/03/09 04:58:41;;;;;;;;;;;-1.00;43.50;;;;;;5059704;28;20023;-76
2022/03/09 05:01:07;;;;;;;;;;;-1.00;43.90;;;;;;5067177;28;20407;-80
2022/03/09 05:03:34;;;;;;;;;;;-1.00;43.60;;;;;;5063741;28;19924;-76
2022/03/09 05:06:19;;;;;;;;;;;-1.00;43.30;;;;;;5052321;28;20175;-80
2022/03/09 05:08:44;;;;;;;;;;;-1.00;43.70;;;;;;5073340;28;19925;-80
2022/03/09 05:11:10;;;;;;;;;;;-1.10;43.90;;;;;;5048986;28;19927;-80
2022/03/09 05:13:36;;;;;;;;;;;-1.10;44.00;;;;;;5051996;28;20058;-76
2022/03/09 05:16:05;;;;;;;;;;;-1.10;44.00;;;;;;5035644;28;21455;-80
2022/03/09 05:18:32;;;;;;;;;;;-1.20;44.40;;;;;;5052607;28;19932;-76
2022/03/09 05:20:58;;;;;;;;;;;-1.30;44.50;;;;;;5055520;28;19920;-77
2022/03/09 05:23:24;;;;;;;;;;;-1.30;44.40;;;;;;5052263;28;19925;-75
2022/03/09 05:25:49;;;;;;;;;;;-1.20;44.30;;;;;;5034412;28;20413;-76
2022/03/09 05:28:15;;;;;;;;;;;-1.30;44.50;;;;;;5051206;28;20121;-80
2022/03/09 05:30:41;;;;;;;;;;;-1.30;44.50;;;;;;5052961;28;19925;-80
2022/03/09 05:33:07;;;;;;;;;;;-1.30;44.60;;;;;;5033679;28;19924;-80
2022/03/09 05:35:33;;;;;;;;;;;-1.30;44.60;;;;;;5036099;28;19924;-80
2022/03/09 05:37:59;;;;;;;;;;;-1.30;44.40;;;;;;5052629;28;19925;-77
2022/03/09 05:40:25;;;;;;;;;;;-1.30;44.40;;;;;;5052607;28;19929;-80
2022/03/09 05:42:51;;;;;;;;;;;-1.30;44.40;;;;;;5053796;28;19925;-80
2022/03/09 05:45:17;;;;;;;;;;;-1.30;44.30;;;;;;5077755;28;20289;-75
2022/03/09 05:47:43;;;;;;;;;;;-1.20;44.20;;;;;;5060299;28;19920;-80
2022/03/09 05:50:09;;;;;;;;;;;-1.20;44.20;;;;;;5061673;28;20367;-80
2022/03/09 05:52:35;;;;;;;;;;;-1.30;43.60;;;;;;5060802;28;19935;-76
2022/03/09 05:55:01;;;;;;;;;;;-1.30;44.70;;;;;;5074512;28;20079;-80
2022/03/09 05:57:27;;;;;;;;;;;-1.30;44.90;;;;;;5068485;28;19929;-76
2022/03/09 05:59:53;;;;;;;;;;;-1.30;45.00;;;;;;5063528;28;19928;-75
2022/03/09 06:02:19;;;;;;;;;;;-1.20;44.20;;;;;;5054380;28;19926;-75
2022/03/09 06:04:46;;;;;;;;;;;-1.20;44.50;;;;;;5050079;28;19925;-80
2022/03/09 06:07:12;;;;;;;;;;;-1.20;44.50;;;;;;5050714;28;20349;-80
2022/03/09 06:09:38;;;;;;;;;;;-1.10;44.50;;;;;;5067751;28;19943;-75
2022/03/09 06:12:05;;;;;;;;;;;-1.10;44.40;;;;;;5050918;28;19924;-76
2022/03/09 06:14:31;;;;;;;;;;;-1.10;44.30;;;;;;5053228;28;19932;-75
2022/03/09 06:16:57;;;;;;;;;;;-1.10;44.50;;;;;;5058591;28;19929;-76
2022/03/09 06:19:23;;;;;;;;;;;-1.10;44.60;;;;;;5039598;28;19970;-80
2022/03/09 06:21:48;;;;;;;;;;;-1.10;44.70;;;;;;5069003;28;19924;-75
2022/03/09 06:24:18;;;;;;;;;;;-1.00;44.60;;;;;;5069625;28;19925;-76
2022/03/09 06:27:02;;;;;;;;;;;-1.00;44.60;;;;;;5070541;28;20303;-76
2022/03/09 06:29:28;;;;;;;;;;;-1.00;44.50;;;;;;5058210;28;20323;-80
2022/03/09 06:31:55;;;;;;;;;;;-1.00;44.70;;;;;;5067492;28;19931;-76
2022/03/09 06:34:21;;;;;;;;;;;-0.90;44.80;;;;;;5072128;28;19979;-80
2022/03/09 06:36:47;;;;;;;;;;;-0.80;44.20;;;;;;5058835;28;19932;-80
2022/03/09 06:39:15;;;;;;;;;;;-0.80;44.70;;;;;;5069883;28;19925;-76
2022/03/09 06:41:43;;;;;;;;;;;-0.70;44.70;;;;;;5064761;28;19931;-76
2022/03/09 06:44:09;;;;;;;;;;;-0.60;44.50;;;;;;5062874;28;19931;-76
2022/03/09 06:46:35;;;;;;;;;;;-0.60;44.50;;;;;;5034784;28;19925;-78
2022/03/09 06:49:01;;;;;;;;;;;-0.50;44.70;;;;;;5054602;28;19932;-76
2022/03/09 06:51:27;;;;;;;;;;;-0.40;44.70;;;;;;5053985;28;19928;-80
2022/03/09 06:53:53;;;;;;;;;;;-0.40;44.60;;;;;;5041545;28;19966;-77
2022/03/09 06:56:19;;;;;;;;;;;-0.30;44.80;;;;;;5067189;28;19917;-76
2022/03/09 06:58:46;;;;;;;;;;;-0.20;44.60;;;;;;5057499;28;20373;-80
2022/03/09 07:01:12;;;;;;;;;;;-0.20;44.40;;;;;;5069703;28;20008;-80
2022/03/09 07:03:38;;;;;;;;;;;-0.10;44.40;;;;;;5070615;28;20370;-80
2022/03/09 07:06:04;;;;;;;;;;;0.00;44.30;;;;;;5054325;28;19931;-76
2022/03/09 07:08:30;;;;;;;;;;;0.10;44.60;;;;;;5072088;28;19925;-76
2022/03/09 07:10:56;;;;;;;;;;;0.20;44.00;;;;;;5052326;28;20020;-80
2022/03/09 07:13:22;;;;;;;;;;;0.30;44.70;;;;;;5060569;28;19932;-77
2022/03/09 07:15:48;;;;;;;;;;;0.30;44.80;;;;;;5056842;28;19977;-76
2022/03/09 07:18:15;;;;;;;;;;;0.40;45.00;;;;;;5068222;28;19924;-80
2022/03/09 07:20:41;;;;;;;;;;;0.50;44.90;;;;;;5080592;28;19950;-80
2022/03/09 07:23:07;;;;;;;;;;;0.70;44.90;;;;;;5075232;28;19916;-76
2022/03/09 07:25:34;;;;;;;;;;;0.70;45.30;;;;;;5054329;28;19931;-81
2022/03/09 07:28:01;;;;;;;;;;;0.80;44.50;;;;;;5063368;28;19946;-76
2022/03/09 07:30:27;;;;;;;;;;;0.90;44.90;;;;;;5054992;28;20004;-80
2022/03/09 07:32:52;;;;;;;;;;;1.10;45.30;;;;;;5074627;28;19942;-81
2022/03/09 07:35:19;;;;;;;;;;;1.20;45.20;;;;;;5056441;28;19920;-81
2022/03/09 07:37:45;;;;;;;;;;;1.30;45.40;;;;;;5073833;28;19968;-81
2022/03/09 07:40:11;;;;;;;;;;;1.40;45.20;;;;;;5074182;28;19931;-76
2022/03/09 07:42:37;;;;;;;;;;;1.60;45.00;;;;;;5056743;28;19924;-77
2022/03/09 07:45:06;;;;;;;;;;;1.70;44.70;;;;;;5070596;28;19928;-75
2022/03/09 07:47:33;;;;;;;;;;;1.80;44.60;;;;;;5055846;28;19995;-81
2022/03/09 07:49:59;;;;;;;;;;;2.00;44.70;;;;;;5038569;28;19952;-82
2022/03/09 07:52:25;;;;;;;;;;;2.20;44.60;;;;;;5055717;28;20400;-79
2022/03/09 07:54:51;;;;;;;;;;;2.40;45.30;;;;;;5055287;28;20729;-81
2022/03/09 07:57:17;;;;;;;;;;;2.60;44.50;;;;;;5090648;28;19920;-81
2022/03/09 07:59:43;;;;;;;;;;;2.80;44.10;;;;;;5037501;28;19921;-76
2022/03/09 08:02:09;;;;;;;;;;;3.00;43.90;;;;;;5074290;28;20411;-82
2022/03/09 08:04:35;;;;;;;;;;;3.20;43.50;;;;;;5070830;28;19935;-76
2022/03/09 08:07:01;;;;;;;;;;;3.40;43.40;;;;;;5054682;28;19923;-81
2022/03/09 08:09:27;;;;;;;;;;;4.70;42.40;;;;;;5064472;28;19924;-76
2022/03/09 08:11:53;;;;;;;;;;;6.30;39.70;;;;;;5061172;28;19920;-81
2022/03/09 08:14:19;;;;;;;;;;;7.90;39.30;;;;;;5075655;28;19936;-81
2022/03/09 08:16:45;;;;;;;;;;;9.20;38.90;;;;;;5071767;28;19954;-77
2022/03/09 08:19:11;;;;;;;;;;;10.10;38.70;;;;;;5039373;28;19925;-81
2022/03/09 08:21:37;;;;;;;;;;;11.10;38.40;;;;;;5056548;28;19924;-82
2022/03/09 08:24:03;;;;;;;;;;;12.10;37.60;;;;;;5048608;28;19970;-78
2022/03/09 08:26:29;;;;;;;;;;;12.90;36.10;;;;;;5084667;28;19916;-77
2022/03/09 08:28:55;;;;;;;;;;;14.00;36.10;;;;;;5060019;28;19924;-77
2022/03/09 08:31:21;;;;;;;;;;;14.90;35.50;;;;;;5065019;28;20372;-78
2022/03/09 08:33:47;;;;;;;;;;;15.80;34.60;;;;;;5037690;28;19924;-80
2022/03/09 08:36:13;;;;;;;;;;;16.70;33.90;;;;;;5071204;28;19939;-78
2022/03/09 08:38:39;;;;;;;;;;;17.40;32.10;;;;;;5073971;28;19993;-83
2022/03/09 08:41:05;;;;;;;;;;;17.90;31.40;;;;;;5089243;28;19924;-83
2022/03/09 08:43:31;;;;;;;;;;;18.60;30.30;;;;;;5071882;28;19924;-84
2022/03/09 08:45:57;;;;;;;;;;;19.50;29.70;;;;;;5053087;28;20282;-84
2022/03/09 08:48:26;;;;;;;;;;;20.20;29.20;;;;;;5055840;28;19950;-84
2022/03/09 08:51:12;;;;;;;;;;;21.10;28.50;;;;;;5054752;28;19931;-84
2022/03/09 08:53:38;;;;;;;;;;;21.80;27.10;;;;;;5091280;28;19950;-84
2022/03/09 08:56:07;;;;;;;;;;;22.60;26.30;;;;;;5089217;28;19921;-86
2022/03/09 08:58:53;;;;;;;;;;;22.80;24.60;;;;;;5072987;28;19988;-78
2022/03/09 09:01:19;;;;;;;;;;;23.20;24.20;;;;;;5055227;28;19978;-86
2022/03/09 09:03:45;;;;;;;;;;;23.60;23.60;;;;;;5089160;28;19924;-86
2022/03/09 09:06:11;;;;;;;;;;;23.80;22.80;;;;;;5065067;28;19924;-84
2022/03/09 09:08:37;;;;;;;;;;;24.10;22.10;;;;;;5089094;28;19959;-79
2022/03/09 09:11:03;;;;;;;;;;;24.50;21.40;;;;;;5077552;28;20057;-85
2022/03/09 09:13:29;;;;;;;;;;;24.80;20.90;;;;;;5067336;28;20057;-84
2022/03/09 09:15:56;;;;;;;;;;;25.10;20.00;;;;;;5087921;28;20434;-78
2022/03/09 09:18:22;;;;;;;;;;;25.40;19.50;;;;;;5054771;28;19939;-86
2022/03/09 09:20:49;;;;;;;;;;;25.70;18.70;;;;;;5089715;28;20637;-85
2022/03/09 09:23:15;;;;;;;;;;;25.90;17.90;;;;;;5047014;28;19920;-84
2022/03/09 09:25:41;;;;;;;;;;;26.40;17.50;;;;;;5075373;28;20343;-84
2022/03/09 09:28:07;;;;;;;;;;;26.80;17.00;;;;;;5054798;28;19924;-78
2022/03/09 09:30:34;;;;;;;;;;;27.20;17.20;;;;;;5055559;28;20495;-85
2022/03/09 09:33:00;;;;;;;;;;;27.90;16.10;;;;;;5070699;28;20412;-84
2022/03/09 09:35:26;;;;;;;;;;;28.50;15.40;;;;;;5072836;28;19928;-85
2022/03/09 09:37:52;;;;;;;;;;;29.10;15.20;;;;;;5073882;28;19935;-85
2022/03/09 09:40:19;;;;;;;;;;;29.40;14.80;;;;;;5071262;28;20496;-84
2022/03/09 09:42:45;;;;;;;;;;;29.40;14.60;;;;;;5088616;28;19920;-77
2022/03/09 09:45:11;;;;;;;;;;;29.10;13.90;;;;;;5035646;28;19924;-85
2022/03/09 09:47:37;;;;;;;;;;;29.30;14.10;;;;;;5038385;28;19973;-77
2022/03/09 09:50:06;;;;;;;;;;;29.60;13.90;;;;;;5076384;28;20440;-85
2022/03/09 09:52:33;;;;;;;;;;;30.40;13.40;;;;;;5059202;28;19952;-78
2022/03/09 09:55:02;;;;;;;;;;;31.00;13.10;;;;;;5058068;28;19978;-84
2022/03/09 09:57:47;;;;;;;;;;;31.40;12.90;;;;;;5075091;28;20344;-77
2022/03/09 10:00:13;;;;;;;;;;;31.60;12.50;;;;;;5073697;28;19931;-78
2022/03/09 10:02:59;;;;;;;;;;;31.90;12.00;;;;;;5071094;28;20265;-79
2022/03/09 10:05:25;;;;;;;;;;;32.30;12.10;;;;;;5093101;28;19928;-83
2022/03/09 10:08:13;;;;;;;;;;;33.10;11.90;;;;;;5059206;28;19924;-78
2022/03/09 10:10:59;;;;;;;;;;;33.50;11.10;;;;;;5058919;28;20328;-84
2022/03/09 10:13:35;;;;;;;;;;;33.90;10.80;;;;;;5056940;28;20289;-85
2022/03/09 10:16:20;;;;;;;;;;;33.70;10.80;;;;;;5074775;28;19972;-78
2022/03/09 10:19:06;;;;;;;;;;;32.60;11.20;;;;;;5057253;28;19940;-83
2022/03/09 10:21:37;;;;;;;;;;;30.40;12.50;;;;;;5065359;28;19924;-82
2022/03/09 10:24:31;;;;;;;;;;;29.60;12.90;;;;;;5057490;28;19939;-78
2022/03/09 10:26:56;;;;;;;;;;;30.00;12.60;;;;;;5040808;28;19981;-78
2022/03/09 10:29:23;;;;;;;;;;;28.80;12.50;;;;;;5058485;28;19920;-82
2022/03/09 10:31:51;;;;;;;;;;;27.50;13.10;;;;;;5075148;28;20011;-84
2022/03/09 10:34:37;;;;;;;;;;;26.70;13.10;;;;;;5073056;28;19921;-78
2022/03/09 10:37:05;;;;;;;;;;;26.40;13.20;;;;;;5058900;28;19924;-84
2022/03/09 10:39:34;;;;;;;;;;;26.20;13.30;;;;;;5057435;28;19948;-78
2022/03/09 10:42:02;;;;;;;;;;;26.50;13.00;;;;;;5057603;28;20332;-79
2022/03/09 10:44:48;;;;;;;;;;;27.60;12.50;;;;;;5057721;28;19928;-80
2022/03/09 10:47:34;;;;;;;;;;;28.40;11.90;;;;;;5039441;28;19970;-78
2022/03/09 10:50:37;;;;;;;;;;;29.10;12.00;;;;;;5076638;28;19967;-79
2022/03/09 10:53:08;;;;;;;;;;;30.50;11.10;;;;;;5083047;28;19928;-83
2022/03/09 10:55:36;;;;;;;;;;;31.90;10.30;;;;;;5067791;28;19929;-78
2022/03/09 10:58:21;;;;;;;;;;;31.70;9.90;;;;;;5057247;28;19921;-82
2022/03/09 11:00:48;;;;;;;;;;;30.90;10.40;;;;;;5038833;28;19978;-78
2022/03/09 11:03:17;;;;;;;;;;;30.00;11.40;;;;;;5064247;28;19930;-83
2022/03/09 11:05:52;;;;;;;;;;;29.40;11.50;;;;;;5085540;28;20025;-84
2022/03/09 11:08:20;;;;;;;;;;;29.20;11.80;;;;;;5075598;28;20023;-78
2022/03/09 11:10:47;;;;;;;;;;;29.40;11.40;;;;;;5044440;28;19924;-78
2022/03/09 11:13:14;;;;;;;;;;;28.90;11.50;;;;;;5074695;28;19924;-84
2022/03/09 11:15:42;;;;;;;;;;;28.20;12.20;;;;;;5071754;28;19970;-84
2022/03/09 11:18:13;;;;;;;;;;;28.60;11.90;;;;;;5059843;28;20011;-77
2022/03/09 11:20:39;;;;;;;;;;;29.40;11.70;;;;;;5057659;28;19930;-83
2022/03/09 11:23:06;;;;;;;;;;;29.50;10.90;;;;;;5072560;28;19960;-77
2022/03/09 11:25:32;;;;;;;;;;;29.80;10.80;;;;;;5036483;28;20470;-84
2022/03/09 11:27:59;;;;;;;;;;;30.30;10.60;;;;;;5034691;28;20381;-83
2022/03/09 11:30:52;;;;;;;;;;;29.90;10.20;;;;;;5069490;28;19936;-77
2022/03/09 11:33:56;;;;;;;;;;;30.70;10.30;;;;;;5053886;28;19978;-77
2022/03/09 11:42:19;;;;;;;;;;;31.30;10.00;;;;;;5054881;28;19928;-82
2022/03/09 11:45:04;;;;;;;;;;;32.90;9.10;;;;;;5053234;28;19956;-82
2022/03/09 11:48:09;;;;;;;;;;;32.50;9.10;;;;;;5051283;28;19928;-83
2022/03/09 11:51:13;;;;;;;;;;;33.40;8.90;;;;;;5052978;28;19941;-82
2022/03/09 11:53:48;;;;;;;;;;;33.60;8.50;;;;;;5090076;28;19931;-78
2022/03/09 11:56:51;;;;;;;;;;;33.80;8.40;;;;;;5056183;28;19920;-85
2022/03/09 11:59:36;;;;;;;;;;;34.20;8.60;;;;;;5056466;28;20297;-83
2022/03/09 12:02:20;;;;;;;;;;;34.30;8.70;;;;;;5055641;28;19928;-79
2022/03/09 12:04:53;;;;;;;;;;;35.30;8.40;;;;;;5074122;28;19928;-78
2022/03/09 12:07:28;;;;;;;;;;;35.70;8.00;;;;;;5057849;28;20293;-78
2022/03/09 12:09:59;;;;;;;;;;;34.40;8.30;;;;;;5055289;28;19932;-78
2022/03/09 12:13:02;;;;;;;;;;;31.80;9.40;;;;;;5040317;28;19985;-83
2022/03/09 12:15:28;;;;;;;;;;;33.60;9.10;;;;;;5088456;28;19934;-78
2022/03/09 12:17:54;;;;;;;;;;;34.90;8.00;;;;;;5089932;28;19924;-77
2022/03/09 12:20:45;;;;;;;;;;;35.50;7.70;;;;;;5070705;28;20086;-77
2022/03/09 12:23:15;;;;;;;;;;;36.40;7.80;;;;;;5072883;28;19924;-78
2022/03/09 12:26:01;;;;;;;;;;;37.90;7.70;;;;;;5053875;28;19924;-79
2022/03/09 12:28:45;;;;;;;;;;;39.10;7.50;;;;;;5068671;28;20303;-78
2022/03/09 12:31:19;;;;;;;;;;;39.90;6.90;;;;;;5067993;28;20285;-83
2022/03/09 12:33:49;;;;;;;;;;;40.40;6.90;;;;;;5041738;28;19924;-78
2022/03/09 12:36:17;;;;;;;;;;;41.20;6.70;;;;;;5045208;28;19976;-77
2022/03/09 12:38:55;;;;;;;;;;;41.60;6.30;;;;;;5061444;28;19960;-78
2022/03/09 12:41:29;;;;;;;;;;;41.80;6.30;;;;;;5036596;28;20015;-78
2022/03/09 12:44:16;;;;;;;;;;;42.10;6.10;;;;;;5058594;28;19925;-82
2022/03/09 12:46:45;;;;;;;;;;;41.70;5.80;;;;;;5060550;28;19970;-82
2022/03/09 12:49:15;;;;;;;;;;;41.60;6.10;;;;;;5058382;28;19964;-82
2022/03/09 12:52:01;;;;;;;;;;;41.90;6.00;;;;;;5033904;28;20289;-77
2022/03/09 12:55:05;;;;;;;;;;;42.50;6.00;;;;;;5036361;28;19925;-78
2022/03/09 12:57:33;;;;;;;;;;;42.80;5.90;;;;;;5051318;28;19924;-82
2022/03/09 13:00:17;;;;;;;;;;;42.90;5.70;;;;;;5050595;28;19916;-77
2022/03/09 13:03:04;;;;;;;;;;;43.20;5.80;;;;;;5053030;28;19924;-82
2022/03/09 13:05:30;;;;;;;;;;;43.80;5.30;;;;;;5052855;28;19931;-77
2022/03/09 13:08:16;;;;;;;;;;;44.10;5.50;;;;;;5067893;28;19925;-78
2022/03/09 13:10:45;;;;;;;;;;;43.80;5.10;;;;;;5068743;28;19988;-82
2022/03/09 13:13:11;;;;;;;;;;;43.90;5.20;;;;;;5052432;28;19971;-82
2022/03/09 13:15:59;;;;;;;;;;;44.30;5.30;;;;;;5051112;28;19924;-82
2022/03/09 13:18:28;;;;;;;;;;;44.40;5.30;;;;;;5048804;28;19925;-82
2022/03/09 13:20:54;;;;;;;;;;;43.80;4.60;;;;;;5049962;28;19924;-78
2022/03/09 13:23:58;;;;;;;;;;;43.10;5.20;;;;;;5051776;28;19975;-78
2022/03/09 13:26:26;;;;;;;;;;;43.80;5.50;;;;;;5052625;28;20381;-77
2022/03/09 13:28:54;;;;;;;;;;;44.50;5.50;;;;;;5050966;28;19925;-83
2022/03/09 13:31:20;;;;;;;;;;;44.60;5.20;;;;;;5051504;28;19925;-83
2022/03/09 13:34:23;;;;;;;;;;;44.40;5.50;;;;;;5050824;28;19925;-77
2022/03/09 13:37:10;;;;;;;;;;;44.20;5.50;;;;;;5050627;28;19925;-82
2022/03/09 13:39:39;;;;;;;;;;;44.30;5.50;;;;;;5035064;28;19933;-82
2022/03/09 13:42:06;;;;;;;;;;;43.90;5.10;;;;;;5050603;28;20320;-83
2022/03/09 13:44:33;;;;;;;;;;;43.70;5.20;;;;;;5053033;28;20339;-82
2022/03/09 13:47:26;;;;;;;;;;;43.80;5.20;;;;;;5050866;28;19920;-77
2022/03/09 13:49:52;;;;;;;;;;;43.90;5.10;;;;;;5068751;28;19931;-83
2022/03/09 13:52:32;;;;;;;;;;;43.70;5.40;;;;;;5050548;28;20289;-83
2022/03/09 13:54:59;;;;;;;;;;;43.50;5.20;;;;;;5033123;28;19928;-82
2022/03/09 13:57:46;;;;;;;;;;;42.60;4.70;;;;;;5050550;28;19975;-77
2022/03/09 14:00:12;;;;;;;;;;;42.00;5.20;;;;;;5053531;28;20373;-78
2022/03/09 14:02:38;;;;;;;;;;;41.90;5.20;;;;;;5051452;28;19986;-77
2022/03/09 14:05:06;;;;;;;;;;;41.70;5.20;;;;;;5052638;28;19925;-83
2022/03/09 14:07:38;;;;;;;;;;;41.90;5.30;;;;;;5033129;28;19949;-78
2022/03/09 14:10:24;;;;;;;;;;;41.70;5.20;;;;;;5051472;28;19928;-84
2022/03/09 14:12:50;;;;;;;;;;;41.90;5.20;;;;;;5034700;28;19928;-77
2022/03/09 14:15:16;;;;;;;;;;;41.70;5.40;;;;;;5048636;28;23456;-83
2022/03/09 14:17:42;;;;;;;;;;;41.70;5.40;;;;;;5051025;28;19927;-77
2022/03/09 14:20:10;;;;;;;;;;;42.00;5.70;;;;;;5069266;28;19920;-82
2022/03/09 14:22:54;;;;;;;;;;;42.20;5.50;;;;;;5049776;28;20348;-78
2022/03/09 14:25:21;;;;;;;;;;;42.20;5.50;;;;;;5050024;28;19925;-77
2022/03/09 14:27:47;;;;;;;;;;;42.20;5.70;;;;;;5051144;28;20344;-82
2022/03/09 14:30:15;;;;;;;;;;;42.30;5.50;;;;;;5036978;28;19928;-78
2022/03/09 14:32:43;;;;;;;;;;;42.10;5.60;;;;;;5051481;28;19922;-78
2022/03/09 14:35:11;;;;;;;;;;;41.40;5.60;;;;;;5074026;28;19920;-82
2022/03/09 14:37:37;;;;;;;;;;;41.10;5.60;;;;;;5059017;28;19964;-82
2022/03/09 14:40:04;;;;;;;;;;;41.00;5.50;;;;;;5053709;28;20040;-78